Time;durP1;ratioP1;P1;durP2;ratioP2;P2;SDS_P1;SDS_P2;PMS_P1;PMS_P2;Temp;Humidity;BMP_temperature;BMP_pressure;BME280_temperature;BME280_humidity;BME280_pressure;Samples;Min_cycle;Max_cycle;Signal;HPM_P1;HPM_P2
2023/04/03 00:02:25;;;;;;;;;;;5.30;99.90;;;;;;6237022;23;20340;-92
2023/04/03 00:04:51;;;;;;;;;;;5.30;99.90;;;;;;6212761;23;20225;-91
2023/04/03 00:07:16;;;;;;;;;;;5.30;99.90;;;;;;6212034;23;19987;-92
2023/04/03 00:09:42;;;;;;;;;;;5.30;99.90;;;;;;6212712;23;19911;-93
2023/04/03 00:12:10;;;;;;;;;;;5.10;99.90;;;;;;6213206;23;19912;-92
2023/04/03 00:14:36;;;;;;;;;;;5.20;99.90;;;;;;6211863;23;19915;-92
2023/04/03 00:17:01;;;;;;;;;;;5.10;99.90;;;;;;6212345;23;20225;-92
2023/04/03 00:19:27;;;;;;;;;;;5.20;99.90;;;;;;6212911;23;19912;-92
2023/04/03 00:22:02;;;;;;;;;;;5.30;99.90;;;;;;6212725;23;19904;-92
2023/04/03 00:24:30;;;;;;;;;;;5.30;99.90;;;;;;6211735;23;19931;-91
2023/04/03 00:26:55;;;;;;;;;;;5.30;99.90;;;;;;6212288;23;20282;-93
2023/04/03 00:29:26;;;;;;;;;;;5.30;99.90;;;;;;6211943;23;19908;-93
2023/04/03 00:31:54;;;;;;;;;;;5.30;99.90;;;;;;6209503;23;20225;-91
2023/04/03 00:34:19;;;;;;;;;;;5.20;99.90;;;;;;6211586;23;19912;-92
2023/04/03 00:36:45;;;;;;;;;;;5.10;99.90;;;;;;6212488;23;20344;-92
2023/04/03 00:39:10;;;;;;;;;;;5.00;99.90;;;;;;6212005;23;19935;-92
2023/04/03 00:41:38;;;;;;;;;;;4.80;99.90;;;;;;6212487;23;20240;-92
2023/04/03 00:44:36;;;;;;;;;;;4.90;99.90;;;;;;6212273;23;20003;-91
2023/04/03 00:47:03;;;;;;;;;;;4.90;99.90;;;;;;6179351;23;20084;-93
2023/04/03 00:49:29;;;;;;;;;;;4.80;99.90;;;;;;6211538;23;20307;-92
2023/04/03 00:51:57;;;;;;;;;;;4.80;99.90;;;;;;6211574;23;20321;-93
2023/04/03 00:54:23;;;;;;;;;;;4.80;99.90;;;;;;6212005;23;19911;-93
2023/04/03 00:56:50;;;;;;;;;;;4.80;99.90;;;;;;6212695;23;19908;-92
2023/04/03 00:59:25;;;;;;;;;;;4.90;99.90;;;;;;6211878;23;19938;-91
2023/04/03 01:01:51;;;;;;;;;;;4.80;99.90;;;;;;6212037;23;20275;-94
2023/04/03 01:04:36;;;;;;;;;;;4.90;99.90;;;;;;6211826;23;19978;-92
2023/04/03 01:07:05;;;;;;;;;;;4.80;99.90;;;;;;6211151;23;20178;-91
2023/04/03 01:09:34;;;;;;;;;;;4.80;99.90;;;;;;6211591;23;19904;-90
2023/04/03 01:12:15;;;;;;;;;;;4.70;99.90;;;;;;6211214;23;19912;-90
2023/04/03 01:14:42;;;;;;;;;;;4.60;99.90;;;;;;6212328;23;19911;-93
2023/04/03 01:17:25;;;;;;;;;;;4.60;99.90;;;;;;6212652;23;20337;-91
2023/04/03 01:19:55;;;;;;;;;;;4.60;99.90;;;;;;6237140;23;20054;-91
2023/04/03 01:22:28;;;;;;;;;;;4.50;99.90;;;;;;6211367;23;20356;-93
2023/04/03 01:24:54;;;;;;;;;;;4.40;99.90;;;;;;6211505;23;19969;-92
2023/04/03 01:27:19;;;;;;;;;;;4.40;99.90;;;;;;6211303;23;19911;-92
2023/04/03 01:29:45;;;;;;;;;;;4.40;99.90;;;;;;6211577;23;20226;-91
2023/04/03 01:32:13;;;;;;;;;;;4.40;99.90;;;;;;6212391;23;19904;-91
2023/04/03 01:34:38;;;;;;;;;;;4.40;99.90;;;;;;6212842;23;19904;-92
2023/04/03 01:37:04;;;;;;;;;;;4.40;99.90;;;;;;6211573;23;19910;-93
2023/04/03 01:39:32;;;;;;;;;;;4.30;99.90;;;;;;6211293;23;20333;-91
2023/04/03 01:41:59;;;;;;;;;;;4.30;99.90;;;;;;6211240;23;19951;-90
2023/04/03 01:44:24;;;;;;;;;;;4.30;99.90;;;;;;6211115;23;19904;-92
2023/04/03 01:46:50;;;;;;;;;;;4.30;99.90;;;;;;6211973;23;19915;-90
2023/04/03 01:49:16;;;;;;;;;;;4.30;99.90;;;;;;6211169;23;19939;-92
2023/04/03 01:51:44;;;;;;;;;;;4.30;99.90;;;;;;6212316;23;19904;-92
2023/04/03 01:54:10;;;;;;;;;;;4.30;99.90;;;;;;6212671;23;19904;-92
2023/04/03 01:56:38;;;;;;;;;;;4.30;99.90;;;;;;6211120;23;20292;-92
2023/04/03 01:59:06;;;;;;;;;;;4.40;99.90;;;;;;6211217;23;20221;-91
2023/04/03 02:01:32;;;;;;;;;;;4.40;99.90;;;;;;6211319;23;20238;-91
2023/04/03 02:03:58;;;;;;;;;;;4.40;99.90;;;;;;6211658;23;19904;-92
2023/04/03 02:06:23;;;;;;;;;;;4.40;99.90;;;;;;6211114;23;19911;-93
2023/04/03 02:08:49;;;;;;;;;;;4.50;99.90;;;;;;6211229;23;19920;-91
2023/04/03 02:11:15;;;;;;;;;;;4.40;99.90;;;;;;6210963;23;19911;-91
2023/04/03 02:13:40;;;;;;;;;;;4.40;99.90;;;;;;6211672;23;19911;-91
2023/04/03 02:16:07;;;;;;;;;;;4.40;99.90;;;;;;6211328;23;19904;-91
2023/04/03 02:18:32;;;;;;;;;;;4.40;99.90;;;;;;6210941;23;19916;-91
2023/04/03 02:20:58;;;;;;;;;;;4.40;99.90;;;;;;6211121;23;20269;-92
2023/04/03 02:23:24;;;;;;;;;;;4.40;99.90;;;;;;6210808;23;19990;-92
2023/04/03 02:25:49;;;;;;;;;;;4.40;99.90;;;;;;6211499;23;19908;-90
2023/04/03 02:28:15;;;;;;;;;;;4.30;99.90;;;;;;6210842;23;19911;-92
2023/04/03 02:30:40;;;;;;;;;;;4.30;99.90;;;;;;6211642;23;19904;-90
2023/04/03 02:33:06;;;;;;;;;;;4.30;99.90;;;;;;6211411;23;20283;-93
2023/04/03 02:35:37;;;;;;;;;;;4.30;99.90;;;;;;6210801;23;20034;-91
2023/04/03 02:38:02;;;;;;;;;;;4.40;99.90;;;;;;6211116;23;19958;-92
2023/04/03 02:40:30;;;;;;;;;;;4.40;99.90;;;;;;6210821;23;19904;-91
2023/04/03 02:42:56;;;;;;;;;;;4.40;99.90;;;;;;6211009;23;19986;-92
2023/04/03 02:45:22;;;;;;;;;;;4.20;99.90;;;;;;6210670;23;20236;-92
2023/04/03 02:47:47;;;;;;;;;;;4.30;99.90;;;;;;6236447;23;19979;-91
2023/04/03 02:50:13;;;;;;;;;;;4.20;99.90;;;;;;6210200;23;19904;-92
2023/04/03 02:52:38;;;;;;;;;;;4.20;99.90;;;;;;6211600;23;19908;-92
2023/04/03 02:55:06;;;;;;;;;;;4.20;99.90;;;;;;6211218;23;19910;-92
2023/04/03 02:57:37;;;;;;;;;;;4.20;99.90;;;;;;6211974;23;20083;-93
2023/04/03 03:00:07;;;;;;;;;;;4.20;99.90;;;;;;6210942;23;19915;-91
2023/04/03 03:02:33;;;;;;;;;;;4.10;99.90;;;;;;6210514;23;19908;-90
2023/04/03 03:04:58;;;;;;;;;;;4.10;99.90;;;;;;6210874;23;20049;-92
2023/04/03 03:07:24;;;;;;;;;;;4.10;99.90;;;;;;6211073;23;19904;-91
2023/04/03 03:09:50;;;;;;;;;;;4.10;99.90;;;;;;6211049;23;19954;-90
2023/04/03 03:12:15;;;;;;;;;;;4.00;99.90;;;;;;6210556;23;20288;-93
2023/04/03 03:14:47;;;;;;;;;;;4.00;99.90;;;;;;6212173;23;20284;-93
2023/04/03 03:17:17;;;;;;;;;;;3.90;99.90;;;;;;6210754;23;19988;-91
2023/04/03 03:19:43;;;;;;;;;;;3.90;99.90;;;;;;6210432;23;20034;-93
2023/04/03 03:22:15;;;;;;;;;;;3.90;99.90;;;;;;6211747;23;19908;-91
2023/04/03 03:24:41;;;;;;;;;;;3.80;99.90;;;;;;6211854;23;19904;-92
2023/04/03 03:27:06;;;;;;;;;;;3.90;99.90;;;;;;6210760;23;19904;-93
2023/04/03 03:29:32;;;;;;;;;;;3.80;99.90;;;;;;6210828;23;19908;-92
2023/04/03 03:32:01;;;;;;;;;;;3.70;99.90;;;;;;6211024;23;19919;-91
2023/04/03 03:34:26;;;;;;;;;;;3.60;99.90;;;;;;6210518;23;20244;-93
2023/04/03 03:36:55;;;;;;;;;;;3.60;99.90;;;;;;6210813;23;19904;-92
2023/04/03 03:39:20;;;;;;;;;;;3.60;99.90;;;;;;6211044;23;20337;-93
2023/04/03 03:41:53;;;;;;;;;;;3.50;99.90;;;;;;6211176;23;19911;-92
2023/04/03 03:44:27;;;;;;;;;;;;;;;;;;6211095;23;19903;-93
2023/04/03 03:46:57;;;;;;;;;;;3.40;99.90;;;;;;6236367;23;19904;-93
2023/04/03 03:49:28;;;;;;;;;;;3.30;99.90;;;;;;6211220;23;19904;-91
2023/04/03 03:51:56;;;;;;;;;;;3.20;99.90;;;;;;6210581;23;19978;-92
2023/04/03 03:54:27;;;;;;;;;;;3.10;99.90;;;;;;6210509;23;20340;-92
2023/04/03 03:57:01;;;;;;;;;;;3.10;99.90;;;;;;6211301;23;19997;-92
2023/04/03 03:59:26;;;;;;;;;;;3.10;99.90;;;;;;6210791;23;19916;-94
2023/04/03 04:02:10;;;;;;;;;;;3.10;99.90;;;;;;6212572;23;19904;-92
2023/04/03 04:04:38;;;;;;;;;;;3.00;99.90;;;;;;6211148;23;19939;-92
2023/04/03 04:07:30;;;;;;;;;;;3.10;99.90;;;;;;6212121;23;19904;-93
2023/04/03 04:09:55;;;;;;;;;;;3.00;99.90;;;;;;6211464;23;19939;-92
2023/04/03 04:12:21;;;;;;;;;;;3.00;99.90;;;;;;6214964;23;19919;-91
2023/04/03 04:14:47;;;;;;;;;;;2.90;99.90;;;;;;6213298;23;19904;-92
2023/04/03 04:17:28;;;;;;;;;;;2.90;99.90;;;;;;6212509;23;19992;-91
2023/04/03 04:20:06;;;;;;;;;;;;;;;;;;;;;
2023/04/03 04:22:32;;;;;;;;;;;3.00;99.90;;;;;;6214695;23;20019;-94
2023/04/03 04:24:58;;;;;;;;;;;2.90;99.90;;;;;;6212727;23;19947;-91
2023/04/03 04:27:24;;;;;;;;;;;2.90;99.90;;;;;;6212168;23;20352;-91
2023/04/03 04:29:49;;;;;;;;;;;2.90;99.90;;;;;;6211987;23;19949;-92
2023/04/03 04:32:15;;;;;;;;;;;2.80;99.90;;;;;;6212218;23;19983;-93
2023/04/03 04:34:40;;;;;;;;;;;2.80;99.90;;;;;;6213268;23;19987;-92
2023/04/03 04:40:08;;;;;;;;;;;2.70;99.90;;;;;;6214410;23;19995;-93
2023/04/03 04:42:33;;;;;;;;;;;2.70;99.90;;;;;;6212645;23;19908;-92
2023/04/03 04:44:59;;;;;;;;;;;2.70;99.90;;;;;;6210276;23;19915;-89
2023/04/03 04:47:24;;;;;;;;;;;2.50;99.90;;;;;;6211629;23;19903;-90
2023/04/03 04:49:50;;;;;;;;;;;2.60;99.90;;;;;;6205798;23;19927;-92
2023/04/03 04:52:19;;;;;;;;;;;2.80;99.90;;;;;;6208068;23;19904;-93
2023/04/03 04:54:44;;;;;;;;;;;2.90;99.90;;;;;;6210865;23;19904;-91
2023/04/03 04:57:10;;;;;;;;;;;2.80;99.90;;;;;;6213069;23;19974;-91
2023/04/03 04:59:36;;;;;;;;;;;2.80;99.90;;;;;;6210780;23;19922;-92
2023/04/03 05:02:01;;;;;;;;;;;2.60;99.90;;;;;;6209588;23;20188;-89
2023/04/03 05:04:27;;;;;;;;;;;2.90;99.90;;;;;;6210706;23;19908;-93
2023/04/03 05:06:52;;;;;;;;;;;2.90;99.90;;;;;;6210746;23;19910;-94
2023/04/03 05:09:19;;;;;;;;;;;3.00;99.90;;;;;;6216094;23;19904;-91
2023/04/03 05:11:45;;;;;;;;;;;3.00;99.90;;;;;;6195335;23;20325;-93
2023/04/03 05:14:24;;;;;;;;;;;;;;;;;;;;;
2023/04/03 05:16:55;;;;;;;;;;;;;;;;;;6217315;23;20000;-92
2023/04/03 05:19:21;;;;;;;;;;;3.10;99.90;;;;;;6238626;23;19912;-92
2023/04/03 05:21:52;;;;;;;;;;;3.20;99.90;;;;;;6213378;23;19904;-94
2023/04/03 05:24:28;;;;;;;;;;;3.20;99.90;;;;;;6212063;23;19950;-92
2023/04/03 05:27:29;;;;;;;;;;;;;;;;;;;;;
2023/04/03 05:30:11;;;;;;;;;;;;;;;;;;;;;
2023/04/03 05:33:18;;;;;;;;;;;;;;;;;;;;;
2023/04/03 05:35:44;;;;;;;;;;;3.50;99.90;;;;;;6214795;23;19971;-92
2023/04/03 05:38:38;;;;;;;;;;;3.40;99.90;;;;;;6219837;23;20248;-92
2023/04/03 05:41:04;;;;;;;;;;;3.40;99.90;;;;;;6238018;23;19903;-91
2023/04/03 05:43:42;;;;;;;;;;;3.50;99.90;;;;;;6212387;23;19935;-92
2023/04/03 05:46:13;;;;;;;;;;;3.60;99.90;;;;;;6214658;23;19907;-92
2023/04/03 05:48:39;;;;;;;;;;;3.60;99.90;;;;;;6216295;23;19907;-93
2023/04/03 05:51:33;;;;;;;;;;;3.50;99.90;;;;;;6214179;23;19958;-92
2023/04/03 05:54:16;;;;;;;;;;;3.40;99.90;;;;;;6212422;23;19904;-92
2023/04/03 05:56:50;;;;;;;;;;;3.50;99.90;;;;;;6212913;23;19903;-92
2023/04/03 05:59:24;;;;;;;;;;;3.50;99.90;;;;;;6211957;23;19912;-92
2023/04/03 06:02:04;;;;;;;;;;;3.60;99.90;;;;;;6212244;23;19927;-92
2023/04/03 06:07:50;;;;;;;;;;;;;;;;;;;;;
2023/04/03 06:17:20;;;;;;;;;;;;;;;;;;;;;
2023/04/03 06:20:02;;;;;;;;;;;;;;;;;;;;;
2023/04/03 06:22:47;;;;;;;;;;;;;;;;;;;;;
2023/04/03 06:35:05;;;;;;;;;;;4.00;99.90;;;;;;5924093;24;19907;-93
2023/04/03 06:44:03;;;;;;;;;;;;;;;;;;;;;
2023/04/03 06:53:20;;;;;;;;;;;;;;;;;;;;;
2023/04/03 07:40:32;;;;;;;;;;;5.00;99.90;;;;;;6122878;23;19917;-94
2023/04/03 07:49:43;;;;;;;;;;;;;;;;;;;;;
2023/04/03 07:55:43;;;;;;;;;;;;;;;;;;;;;
2023/04/03 08:20:25;;;;;;;;;;;;;;;;;;5817301;24;19920;-93
2023/04/03 08:29:56;;;;;;;;;;;5.50;99.90;;;;;;5891705;24;19913;-92
2023/04/03 08:32:43;;;;;;;;;;;5.40;99.90;;;;;;5951784;24;19911;-93
2023/04/03 08:35:15;;;;;;;;;;;5.50;99.90;;;;;;5960951;24;19955;-93
2023/04/03 08:38:25;;;;;;;;;;;5.70;99.90;;;;;;5964110;24;19971;-94
2023/04/03 08:51:36;;;;;;;;;;;;;;;;;;;;;
2023/04/03 08:54:40;;;;;;;;;;;;;;;;;;;;;
2023/04/03 08:57:31;;;;;;;;;;;;;;;;;;;;;
2023/04/03 09:03:14;;;;;;;;;;;5.80;99.90;;;;;;5874846;24;19908;-92
2023/04/03 09:09:09;;;;;;;;;;;5.80;99.90;;;;;;5924841;24;19916;-93
2023/04/03 09:28:24;;;;;;;;;;;5.70;99.90;;;;;;6152829;23;19939;-92
2023/04/03 09:31:08;;;;;;;;;;;5.90;99.90;;;;;;6123479;23;19905;-93
2023/04/03 09:37:18;;;;;;;;;;;;;;;;;;;;;
2023/04/03 09:39:51;;;;;;;;;;;6.60;99.90;;;;;;6131042;23;19988;-93
2023/04/03 09:42:27;;;;;;;;;;;6.80;99.90;;;;;;6187559;23;20261;-93
2023/04/03 09:48:31;;;;;;;;;;;;;;;;;;;;;
2023/04/03 09:54:26;;;;;;;;;;;7.30;99.90;;;;;;6010109;23;19910;-92
2023/04/03 09:57:18;;;;;;;;;;;7.20;99.90;;;;;;6121623;23;19905;-93
2023/04/03 10:00:15;;;;;;;;;;;;;;;;;;;;;
2023/04/03 10:15:29;;;;;;;;;;;;;;;;;;;;;
2023/04/03 10:18:29;;;;;;;;;;;;;;;;;;;;;
2023/04/03 10:21:12;;;;;;;;;;;;;;;;;;;;;
2023/04/03 10:27:40;;;;;;;;;;;;;;;;;;5985507;23;19917;-93
2023/04/03 10:33:06;;;;;;;;;;;7.90;99.90;;;;;;6124380;23;20274;-93
2023/04/03 10:35:54;;;;;;;;;;;8.10;99.90;;;;;;6159939;23;20070;-93
2023/04/03 10:48:33;;;;;;;;;;;8.20;99.90;;;;;;6067204;23;19905;-92
2023/04/03 11:01:05;;;;;;;;;;;;;;;;;;;;;
2023/04/03 11:04:01;;;;;;;;;;;;;;;;;;;;;
2023/04/03 11:23:18;;;;;;;;;;;;;;;;;;;;;
2023/04/03 15:38:00;;;;;;;;;;;12.00;99.90;;;;;;6188568;23;19923;-92
2023/04/03 15:40:26;;;;;;;;;;;11.90;99.90;;;;;;6211392;23;19911;-92
2023/04/03 15:42:52;;;;;;;;;;;11.80;99.90;;;;;;6211247;23;19969;-93
2023/04/03 15:45:17;;;;;;;;;;;11.80;99.90;;;;;;6211126;23;19955;-91
2023/04/03 15:47:52;;;;;;;;;;;11.90;99.90;;;;;;6210925;23;19911;-93
2023/04/03 15:50:18;;;;;;;;;;;12.00;99.90;;;;;;6211613;23;19982;-92
2023/04/03 15:52:43;;;;;;;;;;;12.00;99.90;;;;;;6211277;23;19911;-93
2023/04/03 15:58:01;;;;;;;;;;;12.20;99.90;;;;;;6205865;23;19904;-93
2023/04/03 16:00:27;;;;;;;;;;;12.20;99.90;;;;;;6211808;23;19912;-91
2023/04/03 16:02:58;;;;;;;;;;;12.20;99.90;;;;;;6210833;23;19936;-93
2023/04/03 16:05:26;;;;;;;;;;;12.10;99.90;;;;;;6210553;23;19904;-93
2023/04/03 16:07:55;;;;;;;;;;;12.20;99.90;;;;;;6212258;23;19904;-92
2023/04/03 16:10:21;;;;;;;;;;;12.20;99.90;;;;;;6213315;23;19912;-93
2023/04/03 16:12:46;;;;;;;;;;;12.20;99.90;;;;;;6214169;23;20333;-91
2023/04/03 16:15:59;;;;;;;;;;;12.30;99.90;;;;;;6215245;23;19904;-93
2023/04/03 16:18:26;;;;;;;;;;;12.50;99.90;;;;;;6205711;23;19919;-94
2023/04/03 16:20:54;;;;;;;;;;;12.60;99.90;;;;;;6213798;23;19939;-92
2023/04/03 16:23:20;;;;;;;;;;;12.50;99.90;;;;;;6212170;23;19914;-91
2023/04/03 16:25:46;;;;;;;;;;;12.50;99.90;;;;;;6213373;23;19904;-92
2023/04/03 16:28:17;;;;;;;;;;;12.60;99.90;;;;;;6212659;23;19958;-91
2023/04/03 16:30:43;;;;;;;;;;;12.60;99.90;;;;;;6211997;23;19904;-93
2023/04/03 16:33:10;;;;;;;;;;;12.70;99.90;;;;;;6213051;23;19934;-91
2023/04/03 16:35:36;;;;;;;;;;;12.60;99.90;;;;;;6211404;23;19919;-90
2023/04/03 16:38:01;;;;;;;;;;;12.60;99.90;;;;;;6212480;23;20154;-93
2023/04/03 16:40:27;;;;;;;;;;;12.50;99.90;;;;;;6212002;23;19911;-91
2023/04/03 16:42:58;;;;;;;;;;;12.70;99.90;;;;;;6217477;23;19904;-93
2023/04/03 16:48:13;;;;;;;;;;;13.40;99.90;;;;;;6161172;23;19921;-93
2023/04/03 16:50:42;;;;;;;;;;;14.20;99.90;;;;;;6133641;23;19905;-93
2023/04/03 16:53:13;;;;;;;;;;;14.50;99.90;;;;;;6161503;23;19912;-93
2023/04/03 16:55:45;;;;;;;;;;;14.90;99.90;;;;;;6131662;23;19984;-94
2023/04/03 16:58:12;;;;;;;;;;;14.90;99.90;;;;;;6128723;23;19911;-93
2023/04/03 17:00:48;;;;;;;;;;;14.60;99.90;;;;;;6156175;23;19913;-93
2023/04/03 17:03:14;;;;;;;;;;;14.70;99.90;;;;;;6153319;23;20330;-92
2023/04/03 17:05:39;;;;;;;;;;;14.50;99.90;;;;;;6129267;23;19947;-93
2023/04/03 17:08:05;;;;;;;;;;;14.20;99.90;;;;;;6153690;23;20027;-92
2023/04/03 17:10:33;;;;;;;;;;;14.70;99.90;;;;;;6128429;23;19920;-92
2023/04/03 17:12:59;;;;;;;;;;;14.40;99.90;;;;;;6129788;23;19905;-95
2023/04/03 17:15:25;;;;;;;;;;;14.90;99.90;;;;;;6130691;23;19936;-94
2023/04/03 17:17:53;;;;;;;;;;;15.30;99.90;;;;;;6129864;23;19905;-92
2023/04/03 17:20:19;;;;;;;;;;;14.30;99.90;;;;;;6149994;23;19955;-92
2023/04/03 17:22:50;;;;;;;;;;;15.00;99.90;;;;;;6145857;23;19904;-91
2023/04/03 17:25:16;;;;;;;;;;;14.90;99.90;;;;;;6150799;23;19961;-93
2023/04/03 17:27:42;;;;;;;;;;;15.00;99.90;;;;;;6135211;23;19908;-91
2023/04/03 17:30:08;;;;;;;;;;;15.00;99.90;;;;;;6129560;23;19912;-94
2023/04/03 17:32:33;;;;;;;;;;;15.40;99.90;;;;;;6130806;23;19987;-93
2023/04/03 17:34:59;;;;;;;;;;;15.70;99.90;;;;;;6127878;23;19905;-92
2023/04/03 17:37:25;;;;;;;;;;;15.80;99.90;;;;;;6127517;23;19909;-93
2023/04/03 17:39:53;;;;;;;;;;;14.80;99.90;;;;;;6128753;23;19913;-91
2023/04/03 17:42:18;;;;;;;;;;;14.70;99.90;;;;;;6130218;23;19905;-90
2023/04/03 17:44:44;;;;;;;;;;;14.30;99.90;;;;;;6129090;23;19905;-91
2023/04/03 17:47:13;;;;;;;;;;;14.10;99.90;;;;;;6144860;23;19912;-92
2023/04/03 17:49:38;;;;;;;;;;;14.00;99.90;;;;;;6155206;23;19928;-92
2023/04/03 17:52:04;;;;;;;;;;;14.10;99.90;;;;;;6176752;23;20255;-92
2023/04/03 17:54:29;;;;;;;;;;;14.00;99.90;;;;;;6151386;23;19904;-90
2023/04/03 17:56:55;;;;;;;;;;;13.70;99.90;;;;;;6153373;23;19958;-91
2023/04/03 17:59:20;;;;;;;;;;;13.50;99.90;;;;;;6150782;23;19908;-91
2023/04/03 18:01:47;;;;;;;;;;;12.80;99.90;;;;;;6154153;23;20227;-90
2023/04/03 18:04:19;;;;;;;;;;;12.20;99.90;;;;;;6155070;23;19905;-93
2023/04/03 18:06:47;;;;;;;;;;;12.30;99.90;;;;;;6152526;23;19905;-91
2023/04/03 18:09:17;;;;;;;;;;;11.90;99.90;;;;;;6151714;23;19905;-91
2023/04/03 18:11:43;;;;;;;;;;;11.90;99.90;;;;;;6153526;23;20401;-92
2023/04/03 18:14:09;;;;;;;;;;;11.60;99.90;;;;;;6152617;23;19905;-91
2023/04/03 18:16:35;;;;;;;;;;;11.50;99.90;;;;;;6151152;23;20294;-93
2023/04/03 18:19:00;;;;;;;;;;;11.40;99.90;;;;;;6150742;23;20330;-89
2023/04/03 18:21:26;;;;;;;;;;;11.30;99.90;;;;;;6150892;23;19913;-92
2023/04/03 18:23:52;;;;;;;;;;;11.30;99.90;;;;;;6150717;23;19912;-91
2023/04/03 18:26:20;;;;;;;;;;;11.20;99.90;;;;;;6150165;23;19912;-93
2023/04/03 18:28:49;;;;;;;;;;;11.10;99.90;;;;;;6150804;23;19931;-91
2023/04/03 18:31:15;;;;;;;;;;;10.90;99.90;;;;;;6151005;23;20337;-93
2023/04/03 18:33:42;;;;;;;;;;;10.70;99.90;;;;;;6153669;23;20330;-91
2023/04/03 18:36:08;;;;;;;;;;;10.70;99.90;;;;;;6152202;23;19912;-91
2023/04/03 18:38:33;;;;;;;;;;;10.60;99.90;;;;;;6150321;23;19904;-89
2023/04/03 18:41:00;;;;;;;;;;;10.50;99.90;;;;;;6150631;23;19987;-91
2023/04/03 18:43:26;;;;;;;;;;;10.40;99.90;;;;;;6154481;23;19936;-92
2023/04/03 18:45:53;;;;;;;;;;;10.40;99.90;;;;;;6145263;23;19912;-85
2023/04/03 18:48:20;;;;;;;;;;;10.30;99.90;;;;;;6147444;23;19908;-86
2023/04/03 18:50:46;;;;;;;;;;;10.30;99.90;;;;;;6149327;23;19904;-87
2023/04/03 18:53:11;;;;;;;;;;;10.20;99.90;;;;;;6151815;23;19959;-86
2023/04/03 18:55:37;;;;;;;;;;;9.80;99.90;;;;;;6151712;23;20226;-85
2023/04/03 18:58:03;;;;;;;;;;;10.00;99.90;;;;;;6151385;23;19987;-84
2023/04/03 19:00:28;;;;;;;;;;;10.20;99.90;;;;;;6151551;23;20330;-91
2023/04/03 19:02:54;;;;;;;;;;;9.90;99.90;;;;;;6151543;23;19947;-85
2023/04/03 19:05:20;;;;;;;;;;;9.90;99.90;;;;;;6150932;23;19905;-89
2023/04/03 19:07:47;;;;;;;;;;;9.70;99.90;;;;;;6149418;23;20293;-90
2023/04/03 19:10:16;;;;;;;;;;;10.40;99.90;;;;;;6151406;23;19935;-88
2023/04/03 19:12:49;;;;;;;;;;;9.70;99.90;;;;;;6149254;23;19967;-92
2023/04/03 19:15:15;;;;;;;;;;;9.60;99.90;;;;;;6150664;23;19911;-87
2023/04/03 19:17:41;;;;;;;;;;;9.60;99.90;;;;;;6151289;23;19908;-92
2023/04/03 19:20:07;;;;;;;;;;;9.80;99.90;;;;;;6150645;23;19971;-88
2023/04/03 19:22:33;;;;;;;;;;;9.40;99.90;;;;;;6150073;23;19943;-91
2023/04/03 19:24:58;;;;;;;;;;;9.30;99.90;;;;;;6151076;23;19905;-92
2023/04/03 19:27:24;;;;;;;;;;;9.20;99.90;;;;;;6151058;23;19911;-91
2023/04/03 19:29:49;;;;;;;;;;;9.10;99.90;;;;;;6151210;23;19909;-90
2023/04/03 19:32:15;;;;;;;;;;;10.10;99.90;;;;;;6151420;23;19905;-85
2023/04/03 19:34:40;;;;;;;;;;;9.10;99.90;;;;;;6152140;23;19944;-92
2023/04/03 19:37:06;;;;;;;;;;;9.10;99.90;;;;;;6125169;23;19904;-92
2023/04/03 19:39:34;;;;;;;;;;;9.80;99.90;;;;;;6150901;23;19971;-91
2023/04/03 19:42:03;;;;;;;;;;;9.10;99.90;;;;;;6151183;23;20250;-89
2023/04/03 19:44:31;;;;;;;;;;;9.00;99.90;;;;;;6153315;23;19911;-89
2023/04/03 19:47:00;;;;;;;;;;;9.90;99.90;;;;;;6153007;23;19916;-88
2023/04/03 19:49:26;;;;;;;;;;;8.90;99.90;;;;;;6153102;23;19911;-90
2023/04/03 19:51:52;;;;;;;;;;;9.40;99.90;;;;;;6152935;23;19905;-87
2023/04/03 19:54:17;;;;;;;;;;;8.70;99.90;;;;;;6152921;23;19908;-89
2023/04/03 19:56:43;;;;;;;;;;;9.40;99.90;;;;;;6154172;23;19959;-90
2023/04/03 19:59:09;;;;;;;;;;;8.80;99.90;;;;;;6151625;23;20048;-92
2023/04/03 20:01:35;;;;;;;;;;;9.60;99.90;;;;;;6153101;23;19905;-88
2023/04/03 20:04:01;;;;;;;;;;;8.70;99.90;;;;;;6152949;23;19932;-89
2023/04/03 20:06:26;;;;;;;;;;;8.90;99.90;;;;;;6152783;23;20330;-93
2023/04/03 20:08:52;;;;;;;;;;;9.30;99.90;;;;;;6153018;23;19905;-88
2023/04/03 20:11:18;;;;;;;;;;;8.60;99.90;;;;;;6154042;23;19951;-88
2023/04/03 20:13:44;;;;;;;;;;;9.30;99.90;;;;;;6155742;23;19904;-90
2023/04/03 20:16:10;;;;;;;;;;;8.50;99.90;;;;;;6155113;23;20348;-90
2023/04/03 20:18:35;;;;;;;;;;;8.50;99.90;;;;;;6153792;23;19908;-89
2023/04/03 20:21:02;;;;;;;;;;;8.60;99.90;;;;;;6152698;23;19909;-92
2023/04/03 20:23:28;;;;;;;;;;;9.00;99.90;;;;;;6152983;23;20005;-89
2023/04/03 20:25:55;;;;;;;;;;;9.10;99.90;;;;;;6152638;23;20261;-90
2023/04/03 20:28:21;;;;;;;;;;;8.50;99.90;;;;;;6152801;23;19955;-90
2023/04/03 20:30:48;;;;;;;;;;;9.40;99.90;;;;;;6153360;23;19916;-91
2023/04/03 20:33:14;;;;;;;;;;;9.50;99.90;;;;;;6153840;23;19963;-90
2023/04/03 20:35:40;;;;;;;;;;;8.90;99.90;;;;;;6152694;23;19904;-89
2023/04/03 20:38:06;;;;;;;;;;;8.90;99.90;;;;;;6152791;23;19959;-90
2023/04/03 20:40:32;;;;;;;;;;;8.30;99.90;;;;;;6152344;23;19912;-91
2023/04/03 20:42:57;;;;;;;;;;;8.30;99.90;;;;;;6151303;23;19970;-90
2023/04/03 20:45:23;;;;;;;;;;;9.20;99.90;;;;;;6152438;23;20393;-88
2023/04/03 20:47:50;;;;;;;;;;;8.70;99.90;;;;;;6151935;23;19934;-87
2023/04/03 20:50:17;;;;;;;;;;;8.30;99.90;;;;;;6153546;23;19905;-92
2023/04/03 20:52:43;;;;;;;;;;;10.20;99.90;;;;;;6126639;23;19912;-88
2023/04/03 20:55:08;;;;;;;;;;;8.20;99.90;;;;;;6150464;23;20298;-86
2023/04/03 20:57:34;;;;;;;;;;;8.10;99.90;;;;;;6152554;23;19905;-89
2023/04/03 21:00:03;;;;;;;;;;;8.50;99.90;;;;;;6152461;23;19920;-86
2023/04/03 21:02:32;;;;;;;;;;;8.10;99.90;;;;;;6152404;23;20369;-86
2023/04/03 21:04:58;;;;;;;;;;;8.80;99.90;;;;;;6152198;23;19916;-89
2023/04/03 21:07:43;;;;;;;;;;;8.00;99.90;;;;;;6152383;23;19904;-87
2023/04/03 21:10:27;;;;;;;;;;;8.00;99.90;;;;;;6152143;23;19997;-87
2023/04/03 21:13:11;;;;;;;;;;;7.90;99.90;;;;;;6152159;23;19987;-88
2023/04/03 21:15:46;;;;;;;;;;;7.90;99.90;;;;;;6152612;23;19952;-86
2023/04/03 21:18:12;;;;;;;;;;;7.90;99.90;;;;;;6152553;23;19904;-90
2023/04/03 21:20:38;;;;;;;;;;;8.50;99.90;;;;;;6152275;23;19955;-88
2023/04/03 21:23:04;;;;;;;;;;;8.80;99.90;;;;;;6151813;23;19912;-90
2023/04/03 21:25:30;;;;;;;;;;;7.70;99.90;;;;;;6151972;23;20389;-90
2023/04/03 21:27:56;;;;;;;;;;;7.60;99.90;;;;;;6151940;23;19951;-90
2023/04/03 21:30:21;;;;;;;;;;;7.60;99.90;;;;;;6151572;23;19912;-87
2023/04/03 21:32:47;;;;;;;;;;;7.70;99.90;;;;;;6151096;23;19915;-88
2023/04/03 21:35:12;;;;;;;;;;;7.60;99.90;;;;;;6125617;23;19977;-84
2023/04/03 21:37:38;;;;;;;;;;;7.60;99.90;;;;;;6151796;23;19904;-87
2023/04/03 21:40:04;;;;;;;;;;;9.00;99.90;;;;;;6151826;23;19913;-86
2023/04/03 21:42:30;;;;;;;;;;;7.50;99.90;;;;;;6151898;23;20396;-87
2023/04/03 21:44:57;;;;;;;;;;;7.50;99.90;;;;;;6152318;23;19904;-90
2023/04/03 21:47:22;;;;;;;;;;;7.30;99.90;;;;;;6151705;23;19912;-86
2023/04/03 21:49:48;;;;;;;;;;;7.50;99.90;;;;;;6152774;23;19912;-91
2023/04/03 21:52:14;;;;;;;;;;;8.50;99.90;;;;;;6151828;23;20223;-88
2023/04/03 21:54:39;;;;;;;;;;;8.00;99.90;;;;;;6151879;23;19943;-93
2023/04/03 21:57:05;;;;;;;;;;;7.20;99.90;;;;;;6150244;23;20365;-88
2023/04/03 21:59:30;;;;;;;;;;;8.60;99.90;;;;;;6151753;23;19960;-88
2023/04/03 22:01:56;;;;;;;;;;;8.70;99.90;;;;;;6151959;23;19911;-87
2023/04/03 22:04:22;;;;;;;;;;;8.30;99.90;;;;;;6152847;23;19936;-89
2023/04/03 22:06:47;;;;;;;;;;;7.20;99.90;;;;;;6149760;23;19908;-90
2023/04/03 22:09:13;;;;;;;;;;;7.30;99.90;;;;;;6151767;23;20007;-88
2023/04/03 22:11:44;;;;;;;;;;;7.20;99.90;;;;;;6151550;23;19952;-87
2023/04/03 22:14:11;;;;;;;;;;;8.90;99.90;;;;;;6151268;23;19987;-86
2023/04/03 22:16:37;;;;;;;;;;;8.10;99.90;;;;;;6152225;23;19912;-88
2023/04/03 22:19:03;;;;;;;;;;;7.00;99.90;;;;;;6151524;23;19955;-89
2023/04/03 22:21:28;;;;;;;;;;;7.80;99.90;;;;;;6151829;23;19991;-87
2023/04/03 22:23:54;;;;;;;;;;;8.60;99.90;;;;;;6152610;23;19911;-86
2023/04/03 22:26:20;;;;;;;;;;;7.90;99.90;;;;;;6152569;23;19905;-86
2023/04/03 22:28:46;;;;;;;;;;;8.80;99.90;;;;;;6152034;23;19979;-90
2023/04/03 22:31:15;;;;;;;;;;;7.10;99.90;;;;;;6151632;23;19947;-88
2023/04/03 22:33:41;;;;;;;;;;;7.90;99.90;;;;;;6151772;23;19958;-88
2023/04/03 22:36:07;;;;;;;;;;;7.00;99.90;;;;;;6151508;23;19933;-88
2023/04/03 22:38:33;;;;;;;;;;;7.00;99.90;;;;;;6151253;23;19931;-90
2023/04/03 22:41:00;;;;;;;;;;;8.90;99.90;;;;;;6151812;23;19992;-88
2023/04/03 22:43:26;;;;;;;;;;;9.40;99.90;;;;;;6151574;23;19983;-89
2023/04/03 22:45:52;;;;;;;;;;;6.90;99.90;;;;;;6152770;23;19924;-88
2023/04/03 22:48:18;;;;;;;;;;;9.00;99.90;;;;;;6125595;23;19904;-86
2023/04/03 22:50:43;;;;;;;;;;;6.80;99.90;;;;;;6152124;23;19905;-90
2023/04/03 22:53:09;;;;;;;;;;;8.50;99.90;;;;;;6151359;23;20318;-90
2023/04/03 22:55:36;;;;;;;;;;;6.80;99.90;;;;;;6151697;23;19908;-87
2023/04/03 22:58:02;;;;;;;;;;;7.00;99.90;;;;;;6126038;23;19904;-87
2023/04/03 23:00:27;;;;;;;;;;;8.00;99.90;;;;;;6151929;23;19923;-89
2023/04/03 23:02:53;;;;;;;;;;;8.50;99.90;;;;;;6153028;23;19940;-89
2023/04/03 23:05:19;;;;;;;;;;;7.80;99.90;;;;;;6154200;23;19905;-87